Terminal Aerodrome Forecast
Issued by NWS Bismarck, ND

Home | Current Version | Previous Version | Graphics & Text | Print | Product List | Glossary On
Versions: 1 2 3 4 5 6 7 8 9 10 11 12 13 14 15 16 17 18
000
FTUS43 KBIS 221131
TAFISN
TAF
KISN 221131Z 2212/2312 27007KT P6SM SKC
     FM221400 29012KT P6SM FEW060 FEW250
     FM221700 28026G38KT P6SM SKC
     FM221900 29031G45KT P6SM SCT070 BKN100
     FM230400 32020G30KT P6SM BKN025
     FM230900 32011KT P6SM FEW030 SCT045=

USA.gov is the U.S. government's official web portal to all federal, state and local government web resources and services.